sensor_id;sensor_type;location;lat;lon;timestamp;pressure;altitude;pressure_sealevel;temperature;humidity
61908;BME280;47864;52.526;19.672;2022-09-01T00:01:42;101493.69;;;13.66;100.00
61908;BME280;47864;52.526;19.672;2022-09-01T00:03:47;101490.16;;;13.66;100.00
61908;BME280;47864;52.526;19.672;2022-09-01T00:05:50;101494.25;;;13.60;100.00
61908;BME280;47864;52.526;19.672;2022-09-01T00:07:52;101492.56;;;13.59;100.00
61908;BME280;47864;52.526;19.672;2022-09-01T00:09:54;101490.84;;;13.68;100.00
61908;BME280;47864;52.526;19.672;2022-09-01T00:11:56;101478.16;;;13.52;100.00
61908;BME280;47864;52.526;19.672;2022-09-01T00:13:59;101489.75;;;13.61;100.00
61908;BME280;47864;52.526;19.672;2022-09-01T00:16:02;101479.16;;;13.51;100.00
61908;BME280;47864;52.526;19.672;2022-09-01T00:18:04;101483.94;;;13.48;100.00
61908;BME280;47864;52.526;19.672;2022-09-01T00:20:06;101480.59;;;13.46;100.00
61908;BME280;47864;52.526;19.672;2022-09-01T00:22:08;101471.69;;;13.27;100.00
61908;BME280;47864;52.526;19.672;2022-09-01T00:24:12;101480.78;;;13.34;100.00
61908;BME280;47864;52.526;19.672;2022-09-01T00:26:15;101483.50;;;13.25;100.00
61908;BME280;47864;52.526;19.672;2022-09-01T00:28:17;101476.78;;;13.11;100.00
61908;BME280;47864;52.526;19.672;2022-09-01T00:30:19;101475.22;;;13.18;100.00
61908;BME280;47864;52.526;19.672;2022-09-01T00:32:21;101481.13;;;13.22;100.00
61908;BME280;47864;52.526;19.672;2022-09-01T00:34:23;101471.59;;;13.19;100.00
61908;BME280;47864;52.526;19.672;2022-09-01T00:36:25;101479.56;;;13.19;100.00
61908;BME280;47864;52.526;19.672;2022-09-01T00:38:28;101480.59;;;13.09;100.00
61908;BME280;47864;52.526;19.672;2022-09-01T00:40:29;101485.50;;;12.94;100.00
61908;BME280;47864;52.526;19.672;2022-09-01T00:42:31;101479.03;;;12.60;100.00
61908;BME280;47864;52.526;19.672;2022-09-01T00:44:33;101476.03;;;12.72;100.00
61908;BME280;47864;52.526;19.672;2022-09-01T00:46:46;101472.84;;;12.59;100.00
61908;BME280;47864;52.526;19.672;2022-09-01T00:49:00;101479.03;;;12.40;100.00
61908;BME280;47864;52.526;19.672;2022-09-01T00:51:03;101482.13;;;12.26;100.00
61908;BME280;47864;52.526;19.672;2022-09-01T00:53:06;101481.00;;;12.09;100.00
61908;BME280;47864;52.526;19.672;2022-09-01T00:55:12;101479.44;;;12.07;100.00
61908;BME280;47864;52.526;19.672;2022-09-01T00:57:15;101476.91;;;12.05;100.00
61908;BME280;47864;52.526;19.672;2022-09-01T00:59:20;101473.72;;;12.02;100.00
61908;BME280;47864;52.526;19.672;2022-09-01T01:01:22;101471.06;;;12.02;100.00
61908;BME280;47864;52.526;19.672;2022-09-01T01:03:24;101470.47;;;11.98;100.00
61908;BME280;47864;52.526;19.672;2022-09-01T01:05:37;101479.16;;;12.00;100.00
61908;BME280;47864;52.526;19.672;2022-09-01T01:07:41;101481.09;;;11.89;100.00
61908;BME280;47864;52.526;19.672;2022-09-01T01:09:48;101478.44;;;11.89;100.00
61908;BME280;47864;52.526;19.672;2022-09-01T01:11:51;101459.97;;;11.77;100.00
61908;BME280;47864;52.526;19.672;2022-09-01T01:15:55;101481.22;;;11.77;100.00
61908;BME280;47864;52.526;19.672;2022-09-01T01:17:58;101483.53;;;11.71;100.00
61908;BME280;47864;52.526;19.672;2022-09-01T01:20:00;101482.28;;;11.65;100.00
61908;BME280;47864;52.526;19.672;2022-09-01T01:22:04;101470.69;;;11.66;100.00
61908;BME280;47864;52.526;19.672;2022-09-01T01:24:22;101474.56;;;11.62;100.00
61908;BME280;47864;52.526;19.672;2022-09-01T01:26:24;101476.38;;;11.62;100.00
61908;BME280;47864;52.526;19.672;2022-09-01T01:28:38;101481.16;;;11.58;100.00
61908;BME280;47864;52.526;19.672;2022-09-01T01:30:49;101466.69;;;11.41;100.00
61908;BME280;47864;52.526;19.672;2022-09-01T01:32:51;101481.34;;;11.36;100.00
61908;BME280;47864;52.526;19.672;2022-09-01T01:34:54;101469.69;;;11.18;100.00
61908;BME280;47864;52.526;19.672;2022-09-01T01:36:56;101473.88;;;11.20;100.00
61908;BME280;47864;52.526;19.672;2022-09-01T01:39:01;101474.31;;;11.25;100.00
61908;BME280;47864;52.526;19.672;2022-09-01T01:41:03;101476.09;;;11.15;100.00
61908;BME280;47864;52.526;19.672;2022-09-01T01:43:06;101433.75;;;10.83;100.00
61908;BME280;47864;52.526;19.672;2022-09-01T01:45:09;101475.84;;;10.97;100.00
61908;BME280;47864;52.526;19.672;2022-09-01T01:47:12;101477.84;;;11.05;100.00
61908;BME280;47864;52.526;19.672;2022-09-01T01:49:15;101471.84;;;11.03;100.00
61908;BME280;47864;52.526;19.672;2022-09-01T01:51:18;101483.81;;;10.97;100.00
61908;BME280;47864;52.526;19.672;2022-09-01T01:53:20;101479.09;;;10.80;100.00
61908;BME280;47864;52.526;19.672;2022-09-01T01:55:23;101481.19;;;10.77;100.00
61908;BME280;47864;52.526;19.672;2022-09-01T01:57:25;101476.44;;;10.80;100.00
61908;BME280;47864;52.526;19.672;2022-09-01T01:59:27;101479.38;;;10.77;100.00
61908;BME280;47864;52.526;19.672;2022-09-01T02:01:29;101481.91;;;10.79;100.00
61908;BME280;47864;52.526;19.672;2022-09-01T02:03:33;101474.75;;;10.70;100.00
61908;BME280;47864;52.526;19.672;2022-09-01T02:05:35;101478.47;;;10.67;100.00
61908;BME280;47864;52.526;19.672;2022-09-01T02:07:37;101477.50;;;10.68;100.00
61908;BME280;47864;52.526;19.672;2022-09-01T02:09:39;101476.34;;;10.61;100.00
61908;BME280;47864;52.526;19.672;2022-09-01T02:11:42;101479.13;;;10.59;100.00
61908;BME280;47864;52.526;19.672;2022-09-01T02:13:44;101478.97;;;10.40;100.00
61908;BME280;47864;52.526;19.672;2022-09-01T02:15:49;101483.97;;;10.54;100.00
61908;BME280;47864;52.526;19.672;2022-09-01T02:17:51;101476.00;;;10.54;100.00
61908;BME280;47864;52.526;19.672;2022-09-01T02:19:53;101474.84;;;10.47;100.00
61908;BME280;47864;52.526;19.672;2022-09-01T02:21:55;101469.50;;;10.38;100.00
61908;BME280;47864;52.526;19.672;2022-09-01T02:24:00;101464.09;;;10.49;100.00
61908;BME280;47864;52.526;19.672;2022-09-01T02:26:02;101472.84;;;10.40;100.00
61908;BME280;47864;52.526;19.672;2022-09-01T02:28:21;101476.59;;;10.37;100.00
61908;BME280;47864;52.526;19.672;2022-09-01T02:30:23;101476.13;;;10.32;100.00
61908;BME280;47864;52.526;19.672;2022-09-01T02:32:26;101473.44;;;10.43;100.00
61908;BME280;47864;52.526;19.672;2022-09-01T02:34:28;101469.34;;;10.39;100.00
61908;BME280;47864;52.526;19.672;2022-09-01T02:36:30;101467.84;;;10.14;100.00
61908;BME280;47864;52.526;19.672;2022-09-01T02:38:32;101431.78;;;9.59;100.00
61908;BME280;47864;52.526;19.672;2022-09-01T02:40:34;101479.91;;;9.75;100.00
61908;BME280;47864;52.526;19.672;2022-09-01T02:42:37;101482.06;;;9.81;100.00
61908;BME280;47864;52.526;19.672;2022-09-01T02:44:39;101481.56;;;9.87;100.00
61908;BME280;47864;52.526;19.672;2022-09-01T02:46:43;101474.19;;;9.91;100.00
61908;BME280;47864;52.526;19.672;2022-09-01T02:48:45;101469.50;;;9.95;100.00
61908;BME280;47864;52.526;19.672;2022-09-01T02:50:47;101475.88;;;10.03;100.00
61908;BME280;47864;52.526;19.672;2022-09-01T02:52:49;101481.84;;;10.05;100.00
61908;BME280;47864;52.526;19.672;2022-09-01T02:54:51;101471.63;;;10.12;100.00
61908;BME280;47864;52.526;19.672;2022-09-01T02:56:53;101478.97;;;10.08;100.00
61908;BME280;47864;52.526;19.672;2022-09-01T02:58:55;101470.38;;;10.16;100.00
61908;BME280;47864;52.526;19.672;2022-09-01T03:00:57;101476.78;;;10.13;100.00
61908;BME280;47864;52.526;19.672;2022-09-01T03:03:00;101479.53;;;10.23;100.00
61908;BME280;47864;52.526;19.672;2022-09-01T03:05:02;101481.19;;;10.35;100.00
61908;BME280;47864;52.526;19.672;2022-09-01T03:07:05;101475.97;;;10.45;100.00
61908;BME280;47864;52.526;19.672;2022-09-01T03:09:11;101482.09;;;10.45;100.00
61908;BME280;47864;52.526;19.672;2022-09-01T03:11:13;101472.59;;;10.43;100.00
61908;BME280;47864;52.526;19.672;2022-09-01T03:13:17;101479.19;;;10.48;100.00
61908;BME280;47864;52.526;19.672;2022-09-01T03:15:20;101479.59;;;10.44;100.00
61908;BME280;47864;52.526;19.672;2022-09-01T03:17:22;101474.28;;;10.44;100.00
61908;BME280;47864;52.526;19.672;2022-09-01T03:19:24;101485.00;;;10.42;100.00
61908;BME280;47864;52.526;19.672;2022-09-01T03:21:26;101487.75;;;10.52;100.00
61908;BME280;47864;52.526;19.672;2022-09-01T03:23:29;101483.75;;;10.46;100.00
61908;BME280;47864;52.526;19.672;2022-09-01T03:25:31;101491.19;;;10.32;100.00
61908;BME280;47864;52.526;19.672;2022-09-01T03:27:33;101486.72;;;10.32;100.00
61908;BME280;47864;52.526;19.672;2022-09-01T03:29:35;101486.81;;;10.42;100.00
61908;BME280;47864;52.526;19.672;2022-09-01T03:31:37;101488.59;;;10.52;100.00
61908;BME280;47864;52.526;19.672;2022-09-01T03:33:39;101492.31;;;10.50;100.00
61908;BME280;47864;52.526;19.672;2022-09-01T03:35:42;101489.34;;;10.43;100.00
61908;BME280;47864;52.526;19.672;2022-09-01T03:37:44;101493.97;;;10.30;100.00
61908;BME280;47864;52.526;19.672;2022-09-01T03:39:46;101494.81;;;10.30;100.00
61908;BME280;47864;52.526;19.672;2022-09-01T03:41:50;101487.97;;;10.49;100.00
61908;BME280;47864;52.526;19.672;2022-09-01T03:43:53;101492.06;;;10.53;100.00
61908;BME280;47864;52.526;19.672;2022-09-01T03:45:56;101493.03;;;10.52;100.00
61908;BME280;47864;52.526;19.672;2022-09-01T03:47:58;101483.16;;;10.54;100.00
61908;BME280;47864;52.526;19.672;2022-09-01T03:50:00;101484.81;;;10.55;100.00
61908;BME280;47864;52.526;19.672;2022-09-01T03:52:02;101486.19;;;10.49;100.00
61908;BME280;47864;52.526;19.672;2022-09-01T03:54:04;101462.91;;;10.53;100.00
61908;BME280;47864;52.526;19.672;2022-09-01T03:56:06;101482.50;;;10.61;100.00
61908;BME280;47864;52.526;19.672;2022-09-01T03:58:09;101476.16;;;10.53;100.00
61908;BME280;47864;52.526;19.672;2022-09-01T04:00:11;101484.69;;;10.56;100.00
61908;BME280;47864;52.526;19.672;2022-09-01T04:02:13;101486.78;;;10.53;100.00
61908;BME280;47864;52.526;19.672;2022-09-01T04:04:15;101493.75;;;10.54;100.00
61908;BME280;47864;52.526;19.672;2022-09-01T04:06:17;101484.44;;;10.59;100.00
61908;BME280;47864;52.526;19.672;2022-09-01T04:08:21;101486.25;;;10.59;100.00
61908;BME280;47864;52.526;19.672;2022-09-01T04:10:23;101474.19;;;10.34;100.00
61908;BME280;47864;52.526;19.672;2022-09-01T04:12:25;101478.84;;;10.21;100.00
61908;BME280;47864;52.526;19.672;2022-09-01T04:14:27;101485.00;;;10.10;100.00
61908;BME280;47864;52.526;19.672;2022-09-01T04:16:33;101480.56;;;10.00;100.00
61908;BME280;47864;52.526;19.672;2022-09-01T04:18:37;101486.72;;;10.00;100.00
61908;BME280;47864;52.526;19.672;2022-09-01T04:20:40;101480.34;;;9.91;100.00
61908;BME280;47864;52.526;19.672;2022-09-01T04:22:42;101489.25;;;9.90;100.00
61908;BME280;47864;52.526;19.672;2022-09-01T04:24:44;101494.56;;;9.90;100.00
61908;BME280;47864;52.526;19.672;2022-09-01T04:26:47;101490.94;;;9.91;100.00
61908;BME280;47864;52.526;19.672;2022-09-01T04:28:49;101486.09;;;9.97;100.00
61908;BME280;47864;52.526;19.672;2022-09-01T04:30:53;101492.94;;;10.10;100.00
61908;BME280;47864;52.526;19.672;2022-09-01T04:32:55;101486.69;;;10.11;100.00
61908;BME280;47864;52.526;19.672;2022-09-01T04:34:57;101491.59;;;10.16;100.00
61908;BME280;47864;52.526;19.672;2022-09-01T04:36:59;101488.34;;;10.23;100.00
61908;BME280;47864;52.526;19.672;2022-09-01T04:39:02;101491.78;;;10.35;100.00
61908;BME280;47864;52.526;19.672;2022-09-01T04:41:05;101491.03;;;10.44;100.00
61908;BME280;47864;52.526;19.672;2022-09-01T04:43:08;101495.38;;;10.66;100.00
61908;BME280;47864;52.526;19.672;2022-09-01T04:45:10;101496.63;;;11.53;100.00
61908;BME280;47864;52.526;19.672;2022-09-01T04:47:12;101496.16;;;13.13;100.00
61908;BME280;47864;52.526;19.672;2022-09-01T04:49:16;101483.59;;;14.05;100.00
61908;BME280;47864;52.526;19.672;2022-09-01T04:51:18;101489.50;;;13.27;100.00
61908;BME280;47864;52.526;19.672;2022-09-01T04:53:20;101490.88;;;12.84;100.00
61908;BME280;47864;52.526;19.672;2022-09-01T04:55:29;101490.69;;;13.05;100.00
61908;BME280;47864;52.526;19.672;2022-09-01T04:57:31;101497.44;;;13.74;100.00
61908;BME280;47864;52.526;19.672;2022-09-01T04:59:33;101500.38;;;13.70;100.00
61908;BME280;47864;52.526;19.672;2022-09-01T05:01:36;101492.22;;;13.45;100.00
61908;BME280;47864;52.526;19.672;2022-09-01T05:03:38;101493.22;;;12.97;100.00
61908;BME280;47864;52.526;19.672;2022-09-01T05:05:43;101495.66;;;12.52;100.00
61908;BME280;47864;52.526;19.672;2022-09-01T05:07:45;101479.44;;;12.55;100.00
61908;BME280;47864;52.526;19.672;2022-09-01T05:09:47;101487.59;;;12.34;100.00
61908;BME280;47864;52.526;19.672;2022-09-01T05:11:48;101485.31;;;12.49;100.00
61908;BME280;47864;52.526;19.672;2022-09-01T05:13:50;101486.69;;;12.82;100.00
61908;BME280;47864;52.526;19.672;2022-09-01T05:16:05;101483.00;;;13.39;100.00
61908;BME280;47864;52.526;19.672;2022-09-01T05:18:07;101482.66;;;13.79;100.00
61908;BME280;47864;52.526;19.672;2022-09-01T05:20:10;101479.69;;;13.55;100.00
61908;BME280;47864;52.526;19.672;2022-09-01T05:22:12;101481.34;;;13.65;100.00
61908;BME280;47864;52.526;19.672;2022-09-01T05:24:16;101484.56;;;13.87;100.00
61908;BME280;47864;52.526;19.672;2022-09-01T05:26:28;101488.59;;;13.73;100.00
61908;BME280;47864;52.526;19.672;2022-09-01T05:28:30;101477.53;;;14.49;100.00
61908;BME280;47864;52.526;19.672;2022-09-01T05:30:33;101472.03;;;15.36;100.00
61908;BME280;47864;52.526;19.672;2022-09-01T05:32:35;101476.31;;;16.21;96.25
61908;BME280;47864;52.526;19.672;2022-09-01T05:34:39;101465.78;;;16.27;92.98
61908;BME280;47864;52.526;19.672;2022-09-01T05:36:43;101473.13;;;16.25;96.02
61908;BME280;47864;52.526;19.672;2022-09-01T05:38:46;101480.31;;;16.17;93.79
61908;BME280;47864;52.526;19.672;2022-09-01T05:40:56;101478.31;;;16.27;93.81
61908;BME280;47864;52.526;19.672;2022-09-01T05:42:59;101476.84;;;16.65;92.38
61908;BME280;47864;52.526;19.672;2022-09-01T05:45:00;101480.09;;;15.78;96.20
61908;BME280;47864;52.526;19.672;2022-09-01T05:47:02;101470.13;;;16.04;93.50
61908;BME280;47864;52.526;19.672;2022-09-01T05:49:06;101473.44;;;16.06;93.70
61908;BME280;47864;52.526;19.672;2022-09-01T05:51:09;101474.09;;;16.00;94.81
61908;BME280;47864;52.526;19.672;2022-09-01T05:53:32;101472.78;;;16.04;94.89
61908;BME280;47864;52.526;19.672;2022-09-01T05:55:36;101473.88;;;15.35;98.31
61908;BME280;47864;52.526;19.672;2022-09-01T05:57:38;101471.91;;;15.87;95.29
61908;BME280;47864;52.526;19.672;2022-09-01T05:59:39;101472.25;;;15.92;95.57
61908;BME280;47864;52.526;19.672;2022-09-01T06:01:42;101474.63;;;16.04;97.17
61908;BME280;47864;52.526;19.672;2022-09-01T06:03:51;101470.28;;;16.27;95.35
61908;BME280;47864;52.526;19.672;2022-09-01T06:05:54;101473.09;;;16.01;96.12
61908;BME280;47864;52.526;19.672;2022-09-01T06:07:57;101471.56;;;15.82;98.53
61908;BME280;47864;52.526;19.672;2022-09-01T06:09:59;101470.91;;;15.80;99.52
61908;BME280;47864;52.526;19.672;2022-09-01T06:12:01;101466.78;;;16.26;97.68
61908;BME280;47864;52.526;19.672;2022-09-01T06:14:03;101466.09;;;16.24;94.45
61908;BME280;47864;52.526;19.672;2022-09-01T06:16:05;101474.28;;;16.31;91.98
61908;BME280;47864;52.526;19.672;2022-09-01T06:18:10;101466.47;;;16.78;90.65
61908;BME280;47864;52.526;19.672;2022-09-01T06:20:12;101469.81;;;16.88;90.77
61908;BME280;47864;52.526;19.672;2022-09-01T06:22:14;101462.56;;;17.44;87.04
61908;BME280;47864;52.526;19.672;2022-09-01T06:24:16;101458.00;;;18.14;86.04
61908;BME280;47864;52.526;19.672;2022-09-01T06:26:19;101462.22;;;18.32;82.88
61908;BME280;47864;52.526;19.672;2022-09-01T06:28:21;101471.31;;;18.08;81.55
61908;BME280;47864;52.526;19.672;2022-09-01T06:30:23;101472.94;;;17.47;82.71
61908;BME280;47864;52.526;19.672;2022-09-01T06:32:25;101473.31;;;18.29;79.55
61908;BME280;47864;52.526;19.672;2022-09-01T06:34:27;101473.03;;;18.84;78.68
61908;BME280;47864;52.526;19.672;2022-09-01T06:36:29;101471.66;;;18.50;77.46
61908;BME280;47864;52.526;19.672;2022-09-01T06:38:35;101471.94;;;19.08;75.13
61908;BME280;47864;52.526;19.672;2022-09-01T06:40:38;101470.94;;;19.23;74.91
61908;BME280;47864;52.526;19.672;2022-09-01T06:42:40;101474.91;;;19.42;72.81
61908;BME280;47864;52.526;19.672;2022-09-01T06:44:42;101468.78;;;19.33;73.25
61908;BME280;47864;52.526;19.672;2022-09-01T06:46:44;101471.97;;;18.70;73.71
61908;BME280;47864;52.526;19.672;2022-09-01T06:48:46;101465.13;;;20.28;69.54
61908;BME280;47864;52.526;19.672;2022-09-01T06:50:48;101479.75;;;20.19;68.56
61908;BME280;47864;52.526;19.672;2022-09-01T06:53:11;101472.03;;;19.94;68.28
61908;BME280;47864;52.526;19.672;2022-09-01T06:55:34;101479.22;;;19.51;70.93
61908;BME280;47864;52.526;19.672;2022-09-01T06:57:37;101477.56;;;20.29;67.30
61908;BME280;47864;52.526;19.672;2022-09-01T06:59:59;101474.03;;;20.07;67.90
61908;BME280;47864;52.526;19.672;2022-09-01T07:02:01;101481.91;;;19.51;70.15
61908;BME280;47864;52.526;19.672;2022-09-01T07:04:06;101485.03;;;19.40;70.27
61908;BME280;47864;52.526;19.672;2022-09-01T07:06:14;101482.59;;;19.74;68.96
61908;BME280;47864;52.526;19.672;2022-09-01T07:08:37;101481.28;;;20.28;68.06
61908;BME280;47864;52.526;19.672;2022-09-01T07:10:58;101479.63;;;20.27;67.23
61908;BME280;47864;52.526;19.672;2022-09-01T07:13:21;101481.47;;;19.69;69.78
61908;BME280;47864;52.526;19.672;2022-09-01T07:15:23;101470.84;;;19.02;72.88
61908;BME280;47864;52.526;19.672;2022-09-01T07:17:47;101475.34;;;19.75;67.77
61908;BME280;47864;52.526;19.672;2022-09-01T07:19:52;101480.00;;;20.02;68.40
61908;BME280;47864;52.526;19.672;2022-09-01T07:21:55;101480.03;;;19.52;68.96
61908;BME280;47864;52.526;19.672;2022-09-01T07:24:18;101469.06;;;19.53;66.71
61908;BME280;47864;52.526;19.672;2022-09-01T07:26:21;101482.34;;;20.48;62.06
61908;BME280;47864;52.526;19.672;2022-09-01T07:28:27;101479.97;;;19.81;63.59
61908;BME280;47864;52.526;19.672;2022-09-01T07:30:51;101480.16;;;19.80;64.22
61908;BME280;47864;52.526;19.672;2022-09-01T07:32:53;101488.16;;;19.73;63.41
61908;BME280;47864;52.526;19.672;2022-09-01T07:34:55;101485.50;;;18.99;63.98
61908;BME280;47864;52.526;19.672;2022-09-01T07:36:57;101480.50;;;18.36;69.60
61908;BME280;47864;52.526;19.672;2022-09-01T07:39:19;101487.69;;;18.96;69.87
61908;BME280;47864;52.526;19.672;2022-09-01T07:41:41;101486.31;;;19.00;66.89
61908;BME280;47864;52.526;19.672;2022-09-01T07:44:03;101495.69;;;19.33;68.28
61908;BME280;47864;52.526;19.672;2022-09-01T07:46:05;101484.06;;;19.77;65.45
61908;BME280;47864;52.526;19.672;2022-09-01T07:48:27;101486.88;;;20.26;62.73
61908;BME280;47864;52.526;19.672;2022-09-01T07:50:51;101487.59;;;19.77;64.95
61908;BME280;47864;52.526;19.672;2022-09-01T07:53:19;101482.31;;;18.96;67.34
61908;BME280;47864;52.526;19.672;2022-09-01T07:55:21;101476.56;;;18.84;68.90
61908;BME280;47864;52.526;19.672;2022-09-01T07:57:23;101478.25;;;18.85;68.12
61908;BME280;47864;52.526;19.672;2022-09-01T07:59:24;101477.13;;;19.38;65.40
61908;BME280;47864;52.526;19.672;2022-09-01T08:01:27;101488.34;;;19.13;66.56
61908;BME280;47864;52.526;19.672;2022-09-01T08:03:29;101489.94;;;18.92;69.34
61908;BME280;47864;52.526;19.672;2022-09-01T08:05:31;101489.00;;;19.00;69.68
61908;BME280;47864;52.526;19.672;2022-09-01T08:07:35;101494.13;;;19.10;69.03
61908;BME280;47864;52.526;19.672;2022-09-01T08:09:52;101500.03;;;19.20;68.66
61908;BME280;47864;52.526;19.672;2022-09-01T08:12:01;101490.38;;;19.11;66.91
61908;BME280;47864;52.526;19.672;2022-09-01T08:14:04;101499.41;;;19.32;66.72
61908;BME280;47864;52.526;19.672;2022-09-01T08:16:06;101501.81;;;19.42;71.18
61908;BME280;47864;52.526;19.672;2022-09-01T08:18:09;101495.50;;;19.06;68.79
61908;BME280;47864;52.526;19.672;2022-09-01T08:20:16;101486.09;;;18.49;71.16
61908;BME280;47864;52.526;19.672;2022-09-01T08:22:19;101496.63;;;18.36;71.72
61908;BME280;47864;52.526;19.672;2022-09-01T08:24:21;101496.31;;;18.31;70.60
61908;BME280;47864;52.526;19.672;2022-09-01T08:26:25;101495.56;;;17.92;70.67
61908;BME280;47864;52.526;19.672;2022-09-01T08:28:27;101496.53;;;17.68;72.57
61908;BME280;47864;52.526;19.672;2022-09-01T08:30:30;101490.78;;;17.32;73.14
61908;BME280;47864;52.526;19.672;2022-09-01T08:32:32;101497.81;;;17.80;75.82
61908;BME280;47864;52.526;19.672;2022-09-01T08:34:35;101489.31;;;18.22;72.71
61908;BME280;47864;52.526;19.672;2022-09-01T08:36:37;101497.16;;;18.09;71.89
61908;BME280;47864;52.526;19.672;2022-09-01T08:38:40;101494.69;;;18.45;71.79
61908;BME280;47864;52.526;19.672;2022-09-01T08:40:49;101489.00;;;18.85;69.51
61908;BME280;47864;52.526;19.672;2022-09-01T08:43:30;101484.97;;;18.67;69.25
61908;BME280;47864;52.526;19.672;2022-09-01T08:45:57;101487.53;;;19.12;69.42
61908;BME280;47864;52.526;19.672;2022-09-01T08:48:04;101491.13;;;19.19;67.50
61908;BME280;47864;52.526;19.672;2022-09-01T08:50:27;101492.56;;;18.78;68.81
61908;BME280;47864;52.526;19.672;2022-09-01T08:52:32;101484.59;;;18.70;67.57
61908;BME280;47864;52.526;19.672;2022-09-01T08:54:56;101489.47;;;19.04;69.62
61908;BME280;47864;52.526;19.672;2022-09-01T08:57:05;101484.47;;;19.30;68.99
61908;BME280;47864;52.526;19.672;2022-09-01T08:59:10;101484.81;;;19.71;70.05
61908;BME280;47864;52.526;19.672;2022-09-01T09:01:42;101479.19;;;19.66;66.00
61908;BME280;47864;52.526;19.672;2022-09-01T09:06:14;101480.69;;;19.10;66.33
61908;BME280;47864;52.526;19.672;2022-09-01T09:10:57;101487.00;;;18.65;67.93
61908;BME280;47864;52.526;19.672;2022-09-01T09:16:00;101482.31;;;17.90;72.14
61908;BME280;47864;52.526;19.672;2022-09-01T09:20:43;101487.34;;;18.16;68.86
61908;BME280;47864;52.526;19.672;2022-09-01T09:22:47;101481.53;;;18.35;69.31
61908;BME280;47864;52.526;19.672;2022-09-01T09:24:50;101481.16;;;18.61;66.81
61908;BME280;47864;52.526;19.672;2022-09-01T09:26:55;101480.91;;;18.02;67.97
61908;BME280;47864;52.526;19.672;2022-09-01T09:28:58;101479.59;;;18.21;67.63
61908;BME280;47864;52.526;19.672;2022-09-01T09:31:32;101480.59;;;18.66;64.88
61908;BME280;47864;52.526;19.672;2022-09-01T09:33:38;101477.59;;;18.83;63.45
61908;BME280;47864;52.526;19.672;2022-09-01T09:35:53;101479.78;;;18.65;63.71
61908;BME280;47864;52.526;19.672;2022-09-01T09:37:55;101470.34;;;18.84;63.28
61908;BME280;47864;52.526;19.672;2022-09-01T09:40:10;101477.16;;;19.24;61.55
61908;BME280;47864;52.526;19.672;2022-09-01T09:42:13;101474.69;;;19.44;61.42
61908;BME280;47864;52.526;19.672;2022-09-01T09:48:34;101471.47;;;18.75;63.90
61908;BME280;47864;52.526;19.672;2022-09-01T09:50:38;101469.28;;;18.33;66.21
61908;BME280;47864;52.526;19.672;2022-09-01T09:52:42;101468.31;;;18.25;67.43
61908;BME280;47864;52.526;19.672;2022-09-01T09:55:01;101468.09;;;18.58;63.52
61908;BME280;47864;52.526;19.672;2022-09-01T10:00:04;101475.44;;;18.56;64.27
61908;BME280;47864;52.526;19.672;2022-09-01T10:04:36;101477.22;;;18.26;63.23
61908;BME280;47864;52.526;19.672;2022-09-01T10:06:41;101465.44;;;18.50;61.04
61908;BME280;47864;52.526;19.672;2022-09-01T10:08:44;101458.38;;;18.11;62.54
61908;BME280;47864;52.526;19.672;2022-09-01T10:10:49;101472.19;;;18.23;64.90
61908;BME280;47864;52.526;19.672;2022-09-01T10:12:59;101465.09;;;18.07;65.52
61908;BME280;47864;52.526;19.672;2022-09-01T10:15:06;101464.53;;;18.12;64.33
61908;BME280;47864;52.526;19.672;2022-09-01T10:17:18;101472.84;;;18.02;63.45
61908;BME280;47864;52.526;19.672;2022-09-01T10:19:23;101479.69;;;17.82;63.49
61908;BME280;47864;52.526;19.672;2022-09-01T10:21:28;101474.38;;;17.97;59.47
61908;BME280;47864;52.526;19.672;2022-09-01T10:23:34;101470.84;;;18.27;61.71
61908;BME280;47864;52.526;19.672;2022-09-01T10:25:37;101471.03;;;18.63;58.53
61908;BME280;47864;52.526;19.672;2022-09-01T10:27:43;101459.38;;;18.71;59.55
61908;BME280;47864;52.526;19.672;2022-09-01T10:30:09;101461.91;;;18.72;56.42
61908;BME280;47864;52.526;19.672;2022-09-01T10:32:20;101463.50;;;18.96;57.20
61908;BME280;47864;52.526;19.672;2022-09-01T10:34:46;101466.47;;;19.01;54.93
61908;BME280;47864;52.526;19.672;2022-09-01T10:36:48;101460.91;;;19.17;58.77
61908;BME280;47864;52.526;19.672;2022-09-01T10:38:57;101451.53;;;18.84;57.06
61908;BME280;47864;52.526;19.672;2022-09-01T10:41:06;101464.91;;;19.07;57.80
61908;BME280;47864;52.526;19.672;2022-09-01T10:45:34;101462.53;;;18.59;57.37
61908;BME280;47864;52.526;19.672;2022-09-01T10:47:39;101455.59;;;18.65;55.41
61908;BME280;47864;52.526;19.672;2022-09-01T10:51:47;101452.56;;;18.83;54.07
61908;BME280;47864;52.526;19.672;2022-09-01T10:53:57;101466.28;;;18.88;52.62
61908;BME280;47864;52.526;19.672;2022-09-01T10:56:16;101462.19;;;19.21;54.01
61908;BME280;47864;52.526;19.672;2022-09-01T11:03:53;101446.44;;;19.33;54.04
61908;BME280;47864;52.526;19.672;2022-09-01T11:05:58;101450.34;;;19.01;55.14
61908;BME280;47864;52.526;19.672;2022-09-01T11:08:45;101451.47;;;19.51;53.03
61908;BME280;47864;52.526;19.672;2022-09-01T11:11:00;101451.88;;;19.69;53.84
61908;BME280;47864;52.526;19.672;2022-09-01T11:17:36;101444.53;;;19.99;55.21
61908;BME280;47864;52.526;19.672;2022-09-01T11:22:03;101447.06;;;20.00;54.08
61908;BME280;47864;52.526;19.672;2022-09-01T11:25:09;101451.09;;;19.24;52.72